createdAt,value
2022-09-15T04:30:58.103Z,48.80
2022-09-15T04:31:58.075Z,48.20
2022-09-15T04:32:58.026Z,48.80
2022-09-15T04:33:58.024Z,49.60
2022-09-15T04:34:58.016Z,54.70
2022-09-15T04:35:57.996Z,58.00
2022-09-15T04:36:57.976Z,52.80
2022-09-15T04:37:57.975Z,49.40
2022-09-15T04:38:57.955Z,51.50
2022-09-15T04:39:58.122Z,51.90
2022-09-15T04:40:57.926Z,53.00
2022-09-15T04:41:57.918Z,52.50
2022-09-15T04:42:57.915Z,48.20
2022-09-15T04:44:04.963Z,52.60
2022-09-15T04:44:57.875Z,50.40
2022-09-15T04:45:57.856Z,53.20
2022-09-15T04:46:57.914Z,53.60
2022-09-15T04:47:57.887Z,49.70
2022-09-15T04:48:57.814Z,49.10
2022-09-15T04:49:57.808Z,42.50
2022-09-15T04:50:57.817Z,46.20
2022-09-15T04:51:57.786Z,46.20
2022-09-15T04:52:57.775Z,49.20
2022-09-15T04:53:57.755Z,48.90
2022-09-15T04:54:57.737Z,49.70
2022-09-15T04:55:57.736Z,45.20
2022-09-15T04:56:57.705Z,42.30
2022-09-15T04:57:57.785Z,42.40
2022-09-15T04:59:03.263Z,49.00
2022-09-15T04:59:58.675Z,41.40
2022-09-15T05:00:57.695Z,49.30
2022-09-15T05:01:57.674Z,46.80
2022-09-15T05:02:57.646Z,39.80
2022-09-15T05:03:57.676Z,46.70
2022-09-15T05:04:57.605Z,46.70
2022-09-15T05:05:57.595Z,43.30
2022-09-15T05:06:57.594Z,47.50
2022-09-15T05:07:57.595Z,47.30
2022-09-15T05:08:57.594Z,42.00
2022-09-15T05:09:57.544Z,48.40
2022-09-15T05:10:57.525Z,42.20
2022-09-15T05:11:57.524Z,44.70
2022-09-15T05:12:57.524Z,53.20
2022-09-15T05:13:57.492Z,44.10
2022-09-15T05:14:57.473Z,47.00
2022-09-15T05:15:57.561Z,45.90
2022-09-15T05:16:57.455Z,43.30
2022-09-15T05:17:57.439Z,39.60
2022-09-15T05:18:57.513Z,41.50
2022-09-15T05:19:57.403Z,38.30
2022-09-15T05:20:57.441Z,46.40
2022-09-15T05:21:57.407Z,48.00
2022-09-15T05:22:57.363Z,53.40
2022-09-15T05:23:57.406Z,48.50
2022-09-15T05:24:57.352Z,46.20
2022-09-15T05:25:57.359Z,41.90
2022-09-15T05:26:57.343Z,44.10
2022-09-15T05:27:57.305Z,45.70
2022-09-15T05:28:57.309Z,47.80
2022-09-15T05:30:23.437Z,45.90
2022-09-15T05:30:58.433Z,102.10
2022-09-15T05:31:57.253Z,43.60
2022-09-15T05:32:57.250Z,44.60
2022-09-15T05:33:57.254Z,40.60
2022-09-15T05:34:57.224Z,42.20
2022-09-15T05:35:57.205Z,39.90
2022-09-15T05:36:57.172Z,44.60
2022-09-15T05:37:57.172Z,40.70
2022-09-15T05:38:57.164Z,36.40
2022-09-15T05:39:57.192Z,39.10
2022-09-15T05:40:57.122Z,37.80
2022-09-15T05:41:57.272Z,36.10
2022-09-15T05:42:57.142Z,37.60
2022-09-15T05:43:57.167Z,39.70
2022-09-15T05:44:57.087Z,36.80
2022-09-15T05:45:57.062Z,34.30
2022-09-15T05:46:57.130Z,32.30
2022-09-15T05:47:57.059Z,31.80
2022-09-15T05:48:58.053Z,37.90
2022-09-15T05:49:57.012Z,29.20
2022-09-15T05:50:56.993Z,32.50
2022-09-15T05:51:56.992Z,28.10
2022-09-15T05:52:56.971Z,27.60
2022-09-15T05:53:56.975Z,29.90
2022-09-15T05:54:59.136Z,34.80
2022-09-15T05:55:56.930Z,28.10
2022-09-15T05:56:56.911Z,32.90
2022-09-15T05:57:56.911Z,28.40
2022-09-15T05:58:56.913Z,28.60
2022-09-15T05:59:56.891Z,29.80
2022-09-15T06:00:56.879Z,29.20
2022-09-15T06:01:56.895Z,28.00
2022-09-15T06:02:56.882Z,26.40
2022-09-15T06:03:56.840Z,27.60
2022-09-15T06:04:56.801Z,31.30
2022-09-15T06:05:56.800Z,33.20
2022-09-15T06:06:56.780Z,32.30
2022-09-15T06:07:56.770Z,28.50
2022-09-15T06:08:58.301Z,28.70
2022-09-15T06:09:56.740Z,28.70
2022-09-15T06:10:56.727Z,32.50
2022-09-15T06:11:56.719Z,30.40
2022-09-15T06:12:56.700Z,30.50
2022-09-15T06:13:56.699Z,27.00
2022-09-15T06:14:56.739Z,26.70
2022-09-15T06:15:56.709Z,32.30
2022-09-15T06:16:56.657Z,29.30
2022-09-15T06:17:56.645Z,26.40
2022-09-15T06:18:56.629Z,25.60
2022-09-15T06:19:56.609Z,24.10
2022-09-15T06:20:56.589Z,27.20
2022-09-15T06:21:56.582Z,24.50
2022-09-15T06:22:56.585Z,28.10
2022-09-15T06:23:56.568Z,26.40
2022-09-15T06:24:56.561Z,27.60
2022-09-15T06:25:56.528Z,26.40
2022-09-15T06:26:56.538Z,26.60
2022-09-15T06:27:56.498Z,30.20
2022-09-15T06:28:56.498Z,25.00
2022-09-15T06:29:56.478Z,24.70
2022-09-15T06:30:56.458Z,19.90
2022-09-15T06:31:56.494Z,20.30
2022-09-15T06:32:56.448Z,20.70
2022-09-15T06:33:56.456Z,19.70
2022-09-15T06:34:56.417Z,23.50
2022-09-15T06:35:56.408Z,21.00
2022-09-15T06:36:56.520Z,17.50
2022-09-15T06:37:56.377Z,19.50
2022-09-15T06:38:56.358Z,16.80
2022-09-15T06:39:56.391Z,22.10
2022-09-15T06:40:56.325Z,20.50
2022-09-15T06:42:02.686Z,19.70
2022-09-15T06:42:57.297Z,21.30
2022-09-15T06:43:56.337Z,23.00
2022-09-15T06:44:56.268Z,21.20
2022-09-15T06:45:56.289Z,19.90
2022-09-15T06:46:56.248Z,20.20
2022-09-15T06:48:20.248Z,22.30
2022-09-15T06:48:57.259Z,18.40
2022-09-15T06:49:56.209Z,21.60
2022-09-15T06:50:56.189Z,26.30
2022-09-15T06:51:56.196Z,23.30
2022-09-15T06:52:56.167Z,21.80
2022-09-15T06:53:56.174Z,24.80
2022-09-15T06:54:56.267Z,20.30
2022-09-15T06:55:56.136Z,22.00
2022-09-15T06:56:56.118Z,21.00
2022-09-15T06:57:56.108Z,23.50
2022-09-15T06:58:56.110Z,20.10
2022-09-15T06:59:56.097Z,20.80
2022-09-15T07:00:56.064Z,24.90
2022-09-15T07:01:56.183Z,20.50
2022-09-15T07:02:56.081Z,22.90
2022-09-15T07:03:56.061Z,19.00
2022-09-15T07:04:56.018Z,18.30
2022-09-15T07:05:56.012Z,20.40
2022-09-15T07:06:55.985Z,18.70
2022-09-15T07:07:55.979Z,18.20
2022-09-15T07:08:55.984Z,22.20
2022-09-15T07:09:55.958Z,23.90
2022-09-15T07:10:55.961Z,21.60
2022-09-15T07:11:55.917Z,22.70
2022-09-15T07:12:55.924Z,20.00
2022-09-15T07:13:55.926Z,21.00
2022-09-15T07:14:55.876Z,18.20
2022-09-15T07:15:55.948Z,19.90
2022-09-15T07:16:55.858Z,22.50
2022-09-15T07:17:55.840Z,20.00
2022-09-15T07:18:55.834Z,21.90
2022-09-15T07:19:55.815Z,19.20
2022-09-15T07:20:55.797Z,19.10
2022-09-15T07:21:55.786Z,18.30
2022-09-15T07:22:55.775Z,16.70
2022-09-15T07:23:55.815Z,20.90
2022-09-15T07:24:55.745Z,21.30
2022-09-15T07:25:55.745Z,16.90
2022-09-15T07:26:55.726Z,19.50
2022-09-15T07:27:55.727Z,17.30
2022-09-15T07:28:55.725Z,16.70
2022-09-15T07:29:55.693Z,21.00
2022-09-15T07:30:55.665Z,19.60
2022-09-15T07:31:55.751Z,18.00
2022-09-15T07:32:55.647Z,14.30
2022-09-15T07:33:55.643Z,14.60
2022-09-15T07:34:58.378Z,18.30
2022-09-15T07:35:55.604Z,19.90
2022-09-15T07:36:55.606Z,17.00
2022-09-15T07:37:55.605Z,18.40
2022-09-15T07:38:55.585Z,18.80
2022-09-15T07:39:55.607Z,17.00
2022-09-15T07:40:55.535Z,13.30
2022-09-15T07:41:55.524Z,14.50
2022-09-15T07:42:55.514Z,13.30
2022-09-15T07:43:55.523Z,15.80
2022-09-15T07:44:55.537Z,15.10
2022-09-15T07:45:55.551Z,18.30
2022-09-15T07:46:55.492Z,14.70
2022-09-15T07:47:55.474Z,14.70
2022-09-15T07:48:55.425Z,15.00
2022-09-15T07:49:55.492Z,17.00
2022-09-15T07:50:55.404Z,13.70
2022-09-15T07:51:55.404Z,14.50
2022-09-15T07:52:55.372Z,14.50
2022-09-15T07:53:55.374Z,15.40
2022-09-15T07:54:55.363Z,14.60
2022-09-15T07:55:55.333Z,15.10
2022-09-15T07:56:55.313Z,12.20
2022-09-15T07:57:55.312Z,14.60
2022-09-15T07:58:55.293Z,14.20
2022-09-15T07:59:55.313Z,15.60
2022-09-15T08:00:55.353Z,13.30
2022-09-15T08:01:55.395Z,13.90
2022-09-15T08:02:55.246Z,17.60
2022-09-15T08:03:55.256Z,12.70
2022-09-15T08:04:55.243Z,15.50
2022-09-15T08:05:55.208Z,13.10
2022-09-15T08:06:55.193Z,14.10
2022-09-15T08:07:55.173Z,10.30
2022-09-15T08:09:00.144Z,13.30
2022-09-15T08:09:56.163Z,13.00
2022-09-15T08:10:55.143Z,11.50
2022-09-15T08:11:55.124Z,17.20
2022-09-15T08:12:55.104Z,12.00
2022-09-15T08:13:55.098Z,13.10
2022-09-15T08:14:55.082Z,12.90
2022-09-15T08:15:55.098Z,11.20
2022-09-15T08:16:55.069Z,9.90
2022-09-15T08:17:55.054Z,10.50
2022-09-15T08:18:55.087Z,11.30
2022-09-15T08:19:55.023Z,13.90
2022-09-15T08:20:54.993Z,14.60
2022-09-15T08:21:54.982Z,12.90
2022-09-15T08:22:54.962Z,12.10
2022-09-15T08:23:54.953Z,10.20
2022-09-15T08:24:54.972Z,10.20
2022-09-15T08:25:55.954Z,13.20
2022-09-15T08:26:54.912Z,11.70
2022-09-15T08:27:54.902Z,8.90
2022-09-15T08:28:54.886Z,8.70
2022-09-15T08:29:54.934Z,10.30
2022-09-15T08:30:54.897Z,9.30
2022-09-15T08:31:54.863Z,10.40
2022-09-15T08:32:54.852Z,10.50
2022-09-15T08:33:54.921Z,10.70
2022-09-15T08:34:54.813Z,9.40
2022-09-15T08:35:54.792Z,13.00
2022-09-15T08:36:54.780Z,8.20
2022-09-15T08:37:54.776Z,10.10
2022-09-15T08:38:54.759Z,10.50
2022-09-15T08:39:54.823Z,9.60
2022-09-15T08:40:54.722Z,10.20
2022-09-15T08:41:54.710Z,7.50
2022-09-15T08:42:54.703Z,8.30
2022-09-15T08:43:54.682Z,9.60
2022-09-15T08:44:54.671Z,9.70
2022-09-15T08:45:54.660Z,7.50
2022-09-15T08:46:54.689Z,11.30
2022-09-15T08:47:54.650Z,8.70
2022-09-15T08:48:54.630Z,10.70
2022-09-15T08:49:54.631Z,9.50
2022-09-15T08:50:54.602Z,10.30
2022-09-15T08:51:54.591Z,11.00
2022-09-15T08:52:54.572Z,9.80
2022-09-15T08:53:54.556Z,10.30
2022-09-15T08:54:54.564Z,9.10
2022-09-15T08:55:54.521Z,9.90
2022-09-15T08:56:54.504Z,10.10
2022-09-15T08:57:54.501Z,8.10
2022-09-15T08:58:54.482Z,8.60
2022-09-15T08:59:54.482Z,8.30
2022-09-15T09:00:54.470Z,11.30
2022-09-15T09:01:54.537Z,8.70
2022-09-15T09:02:54.463Z,9.10
2022-09-15T09:03:54.420Z,10.20
2022-09-15T09:04:54.403Z,8.70
2022-09-15T09:05:54.401Z,9.40
2022-09-15T09:06:54.400Z,11.70
2022-09-15T09:07:54.389Z,9.50
2022-09-15T09:08:54.350Z,7.10
2022-09-15T09:09:54.340Z,10.20
2022-09-15T09:10:54.402Z,9.50
2022-09-15T09:11:54.319Z,7.20
2022-09-15T09:12:54.303Z,8.30
2022-09-15T09:13:54.356Z,9.90
2022-09-15T09:14:54.279Z,9.00
2022-09-15T09:15:54.319Z,8.30
2022-09-15T09:16:54.240Z,7.80
2022-09-15T09:17:54.231Z,9.80
2022-09-15T09:18:54.220Z,10.50
2022-09-15T09:19:54.211Z,9.10
2022-09-15T09:20:54.199Z,6.40
2022-09-15T09:21:54.181Z,8.50
2022-09-15T09:22:54.172Z,9.00
2022-09-15T09:23:54.160Z,5.70
2022-09-15T09:24:54.150Z,7.00
2022-09-15T09:25:54.158Z,7.90
2022-09-15T09:26:54.130Z,6.40
2022-09-15T09:27:54.101Z,7.10
2022-09-15T09:28:54.130Z,6.50
2022-09-15T09:29:54.083Z,9.10
2022-09-15T09:30:54.098Z,8.90
2022-09-15T09:31:54.061Z,10.00
2022-09-15T09:32:54.030Z,10.30
2022-09-15T09:33:54.138Z,9.60
2022-09-15T09:34:54.008Z,6.60
2022-09-15T09:35:54.014Z,7.70
2022-09-15T09:36:53.980Z,8.70
2022-09-15T09:37:53.972Z,6.80
2022-09-15T09:38:53.949Z,5.80
2022-09-15T09:39:54.037Z,9.20
2022-09-15T09:40:55.735Z,8.40
2022-09-15T09:41:53.931Z,4.80
2022-09-15T09:42:53.931Z,6.40
2022-09-15T09:43:53.890Z,8.10
2022-09-15T09:44:53.871Z,5.90
2022-09-15T09:45:53.971Z,8.00
2022-09-15T09:46:53.839Z,5.40
2022-09-15T09:47:56.332Z,5.20
2022-09-15T09:48:53.904Z,7.90
2022-09-15T09:49:53.809Z,7.60
2022-09-15T09:50:53.839Z,7.40
2022-09-15T09:51:53.780Z,7.90
2022-09-15T09:52:53.770Z,5.60
2022-09-15T09:53:53.759Z,8.80
2022-09-15T09:54:53.740Z,9.30
2022-09-15T09:55:53.740Z,5.90
2022-09-15T09:56:53.711Z,5.00
2022-09-15T09:57:53.710Z,9.50
2022-09-15T09:58:53.768Z,2.20
2022-09-15T09:59:53.689Z,4.60
2022-09-15T10:00:53.694Z,7.00
2022-09-15T10:01:53.718Z,3.40
2022-09-15T10:02:53.630Z,5.30
2022-09-15T10:03:53.620Z,4.90
2022-09-15T10:04:53.670Z,3.70
2022-09-15T10:05:53.612Z,5.30
2022-09-15T10:06:53.580Z,3.80
2022-09-15T10:07:53.570Z,6.20
2022-09-15T10:08:53.550Z,2.60
2022-09-15T10:09:53.539Z,4.50
2022-09-15T10:10:53.549Z,4.70
2022-09-15T10:11:53.520Z,2.60
2022-09-15T10:12:53.500Z,4.40
2022-09-15T10:13:53.551Z,4.20
2022-09-15T10:14:53.478Z,3.70
2022-09-15T10:15:53.472Z,2.60
2022-09-15T10:16:53.551Z,7.40
2022-09-15T10:17:53.451Z,2.30
2022-09-15T10:18:54.582Z,2.90
2022-09-15T10:19:53.415Z,3.90
2022-09-15T10:20:53.404Z,5.10
2022-09-15T10:21:53.400Z,3.70
2022-09-15T10:22:53.373Z,2.60
2022-09-15T10:23:53.500Z,2.80
2022-09-15T10:24:53.342Z,2.90
2022-09-15T10:25:59.399Z,1.90
2022-09-15T10:26:54.330Z,2.90
2022-09-15T10:27:53.308Z,2.10
2022-09-15T10:28:53.316Z,3.50
2022-09-15T10:29:53.279Z,2.90
2022-09-15T10:30:53.259Z,1.70
2022-09-15T10:31:53.298Z,3.10
2022-09-15T10:32:53.250Z,5.90
2022-09-15T10:33:53.240Z,0.90
2022-09-15T10:34:53.220Z,3.60
2022-09-15T10:35:53.219Z,4.60
2022-09-15T10:36:53.238Z,2.80
2022-09-15T10:37:53.179Z,3.70
2022-09-15T10:38:53.248Z,2.80
2022-09-15T10:39:53.207Z,2.30
2022-09-15T10:40:53.139Z,4.50
2022-09-15T10:41:53.140Z,1.50
2022-09-15T10:42:53.121Z,2.90
2022-09-15T10:43:53.150Z,3.80
2022-09-15T10:45:00.138Z,6.50
2022-09-15T10:45:53.128Z,3.30
2022-09-15T10:46:53.066Z,1.10
2022-09-15T10:47:53.051Z,2.80
2022-09-15T10:48:53.037Z,2.90
2022-09-15T10:49:53.014Z,2.90
2022-09-15T10:50:53.006Z,3.80
2022-09-15T10:51:52.996Z,1.70
2022-09-15T10:52:52.976Z,4.60
2022-09-15T10:53:57.215Z,2.80
2022-09-15T10:54:52.948Z,3.00
2022-09-15T10:55:53.642Z,5.30
2022-09-15T10:56:52.935Z,2.10
2022-09-15T10:57:52.906Z,3.50
2022-09-15T10:58:53.007Z,4.00
2022-09-15T10:59:52.876Z,2.60
2022-09-15T11:00:52.952Z,4.10
2022-09-15T11:01:52.907Z,4.30
2022-09-15T11:02:52.845Z,3.10
2022-09-15T11:03:52.825Z,5.10
2022-09-15T11:04:52.822Z,3.50
2022-09-15T11:05:52.805Z,2.70
2022-09-15T11:06:52.807Z,2.40
2022-09-15T11:07:52.774Z,3.40
2022-09-15T11:08:52.895Z,2.90
2022-09-15T11:09:52.747Z,3.80
2022-09-15T11:10:52.736Z,4.60
2022-09-15T11:11:52.736Z,4.20
2022-09-15T11:12:52.715Z,3.90
2022-09-15T11:13:52.697Z,3.00
2022-09-15T11:14:52.687Z,4.20
2022-09-15T11:15:52.688Z,3.70
2022-09-15T11:16:52.667Z,1.60
2022-09-15T11:17:52.645Z,4.60
2022-09-15T11:18:52.635Z,3.70
2022-09-15T11:19:52.616Z,3.60
2022-09-15T11:20:52.606Z,3.50
2022-09-15T11:21:52.608Z,3.00
2022-09-15T11:22:52.579Z,3.80
2022-09-15T11:23:52.759Z,3.30
2022-09-15T11:24:52.556Z,4.30
2022-09-15T11:25:52.535Z,5.90
2022-09-15T11:26:52.538Z,5.30
2022-09-15T11:27:52.540Z,4.10
2022-09-15T11:28:52.497Z,3.30
2022-09-15T11:29:52.487Z,5.30
2022-09-15T11:30:52.477Z,4.20
2022-09-15T11:31:52.516Z,6.50
2022-09-15T11:32:55.625Z,4.20
2022-09-15T11:33:53.518Z,2.20
2022-09-15T11:34:52.417Z,4.10
2022-09-15T11:35:52.409Z,2.20
2022-09-15T11:36:52.407Z,3.60
2022-09-15T11:37:52.377Z,3.60
2022-09-15T11:38:52.368Z,4.30
2022-09-15T11:39:52.401Z,4.50
2022-09-15T11:40:52.341Z,4.20
2022-09-15T11:41:52.348Z,6.20
2022-09-15T11:42:52.318Z,4.00
2022-09-15T11:43:52.297Z,4.10
2022-09-15T11:44:52.288Z,3.60
2022-09-15T11:45:52.269Z,8.00
2022-09-15T11:46:52.286Z,2.90
2022-09-15T11:47:52.257Z,4.40
2022-09-15T11:48:52.370Z,4.30
2022-09-15T11:49:52.257Z,4.60
2022-09-15T11:50:52.208Z,4.00
2022-09-15T11:51:52.218Z,6.80
2022-09-15T11:52:52.197Z,6.10
2022-09-15T11:53:52.168Z,5.60
2022-09-15T11:54:52.169Z,3.00
2022-09-15T11:55:52.137Z,2.10
2022-09-15T11:56:52.128Z,2.10
2022-09-15T11:57:52.128Z,3.20
2022-09-15T11:58:52.097Z,6.90
2022-09-15T11:59:52.086Z,5.20
2022-09-15T12:00:52.078Z,3.10
2022-09-15T12:01:52.103Z,2.90
2022-09-15T12:02:52.105Z,2.20
2022-09-15T12:03:52.126Z,2.70
2022-09-15T12:04:52.018Z,1.40
2022-09-15T12:05:52.017Z,3.40
2022-09-15T12:06:52.102Z,4.60
2022-09-15T12:07:51.998Z,1.90
2022-09-15T12:08:52.119Z,2.90
2022-09-15T12:09:51.975Z,2.20
2022-09-15T12:10:51.939Z,2.60
2022-09-15T12:11:51.939Z,3.00
2022-09-15T12:12:51.917Z,6.50
2022-09-15T12:13:51.907Z,3.20
2022-09-15T12:14:51.897Z,3.40
2022-09-15T12:15:51.962Z,7.10
2022-09-15T12:16:51.870Z,4.20
2022-09-15T12:17:51.871Z,3.10
2022-09-15T12:18:51.840Z,4.40
2022-09-15T12:19:51.838Z,4.20
2022-09-15T12:20:51.821Z,3.80
2022-09-15T12:21:51.797Z,3.40
2022-09-15T12:22:51.787Z,2.90
2022-09-15T12:23:51.926Z,4.90
2022-09-15T12:24:51.747Z,2.70
2022-09-15T12:25:51.737Z,3.10
2022-09-15T12:26:51.717Z,3.40
2022-09-15T12:27:51.719Z,3.90
2022-09-15T12:28:51.830Z,1.70
2022-09-15T12:29:51.686Z,2.40
2022-09-15T12:30:51.690Z,6.60
2022-09-15T12:31:51.676Z,2.60
2022-09-15T12:32:51.647Z,1.60
2022-09-15T12:33:51.637Z,4.70
2022-09-15T12:34:51.617Z,4.00
2022-09-15T12:35:51.615Z,4.90
2022-09-15T12:36:51.621Z,4.30
2022-09-15T12:37:51.587Z,2.60
2022-09-15T12:38:51.660Z,4.10
2022-09-15T12:39:51.610Z,4.20
2022-09-15T12:40:51.536Z,4.80
2022-09-15T12:41:51.527Z,3.60
2022-09-15T12:42:51.527Z,3.50
2022-09-15T12:43:51.499Z,3.00
2022-09-15T12:44:51.487Z,3.30
2022-09-15T12:45:51.477Z,2.70
2022-09-15T12:46:51.513Z,2.80
2022-09-15T12:47:51.460Z,3.00
2022-09-15T12:48:51.426Z,1.90
2022-09-15T12:49:51.424Z,4.20
2022-09-15T12:50:51.397Z,2.20
2022-09-15T12:51:51.396Z,2.50
2022-09-15T12:52:51.401Z,4.00
2022-09-15T12:53:51.375Z,3.40
2022-09-15T12:54:51.346Z,3.90
2022-09-15T12:55:51.336Z,3.10
2022-09-15T12:56:51.329Z,4.00
2022-09-15T12:57:51.327Z,3.90
2022-09-15T12:58:51.306Z,2.90
2022-09-15T12:59:51.286Z,3.60
2022-09-15T13:01:16.567Z,2.40
2022-09-15T13:01:52.273Z,2.70
2022-09-15T13:02:51.320Z,3.90
2022-09-15T13:03:51.244Z,1.60
2022-09-15T13:04:51.216Z,2.10
2022-09-15T13:05:51.206Z,3.90
2022-09-15T13:06:51.187Z,2.90
2022-09-15T13:07:51.208Z,2.70
2022-09-15T13:08:51.156Z,6.00
2022-09-15T13:09:51.150Z,4.30
2022-09-15T13:10:51.136Z,6.40
2022-09-15T13:11:51.140Z,1.30
2022-09-15T13:12:51.110Z,3.10
2022-09-15T13:13:51.208Z,6.50
2022-09-15T13:14:51.077Z,4.00
2022-09-15T13:15:51.109Z,6.90
2022-09-15T13:16:51.057Z,5.80
2022-09-15T13:17:51.058Z,3.60
2022-09-15T13:18:51.028Z,3.20
2022-09-15T13:19:51.017Z,5.10
2022-09-15T13:20:50.997Z,3.80
2022-09-15T13:21:50.988Z,7.30
2022-09-15T13:22:50.977Z,2.10
2022-09-15T13:23:50.967Z,2.90
2022-09-15T13:24:50.950Z,4.60
2022-09-15T13:25:50.937Z,2.80
2022-09-15T13:26:50.925Z,4.60
2022-09-15T13:27:50.938Z,2.10
2022-09-15T13:28:52.836Z,3.90
2022-09-15T13:29:50.887Z,6.20
2022-09-15T13:30:50.909Z,3.70
2022-09-15T13:31:50.868Z,4.40
2022-09-15T13:32:50.857Z,4.20
2022-09-15T13:35:04.247Z,4.90
2022-09-15T13:35:51.814Z,3.60
2022-09-15T13:38:16.719Z,8.10
2022-09-15T13:38:51.905Z,4.90
2022-09-15T13:39:50.783Z,1.90
2022-09-15T13:40:50.741Z,3.70
2022-09-15T13:41:50.729Z,4.50
2022-09-15T13:42:50.718Z,4.70
2022-09-15T13:43:50.719Z,1.70
2022-09-15T13:44:50.688Z,2.80
2022-09-15T13:45:50.698Z,2.60
2022-09-15T13:46:50.664Z,3.60
2022-09-15T13:47:50.651Z,4.50
2022-09-15T13:48:50.658Z,5.60
2022-09-15T13:49:50.620Z,3.70
2022-09-15T13:50:50.610Z,2.60
2022-09-15T13:51:53.323Z,2.60
2022-09-15T13:52:50.601Z,4.50
2022-09-15T13:53:50.573Z,5.90
2022-09-15T13:54:50.560Z,3.20
2022-09-15T13:55:50.541Z,3.90
2022-09-15T13:56:50.540Z,6.00
2022-09-15T13:58:58.649Z,5.40
2022-09-15T13:59:51.493Z,4.30
2022-09-15T14:00:50.489Z,4.00
2022-09-15T14:01:50.541Z,6.00
2022-09-15T14:02:50.482Z,5.70
2022-09-15T14:03:50.440Z,2.50
2022-09-15T14:04:50.429Z,5.70
2022-09-15T14:05:50.422Z,4.70
2022-09-15T14:06:50.401Z,3.60
2022-09-15T14:07:52.687Z,6.80
2022-09-15T14:08:50.380Z,7.40
2022-09-15T14:09:50.359Z,3.90
2022-09-15T14:10:50.350Z,6.60
2022-09-15T14:11:50.333Z,4.60
2022-09-15T14:12:50.321Z,7.50
2022-09-15T14:13:50.371Z,3.50
2022-09-15T14:14:50.301Z,5.80
2022-09-15T14:15:50.290Z,5.80
2022-09-15T14:16:50.345Z,3.70
2022-09-15T14:17:50.251Z,5.70
2022-09-15T14:18:50.261Z,3.20
2022-09-15T14:19:50.245Z,4.70
2022-09-15T14:20:50.214Z,4.80
2022-09-15T14:21:52.848Z,3.00
2022-09-15T14:22:50.191Z,6.10
2022-09-15T14:23:50.181Z,4.20
2022-09-15T14:24:50.161Z,4.50
2022-09-15T14:25:50.141Z,4.20
2022-09-15T14:26:50.140Z,4.20
2022-09-15T14:27:50.128Z,6.50
2022-09-15T14:28:50.121Z,6.30
2022-09-15T14:29:50.092Z,5.80
2022-09-15T14:30:50.080Z,3.30
2022-09-15T14:31:50.123Z,7.90
2022-09-15T14:32:50.060Z,7.70
2022-09-15T14:33:50.050Z,5.10
2022-09-15T14:34:50.035Z,3.60
2022-09-15T14:35:50.019Z,6.40
2022-09-15T14:36:50.000Z,4.40
2022-09-15T14:37:50.031Z,5.30
2022-09-15T14:38:49.990Z,5.50
2022-09-15T14:39:49.993Z,3.80
2022-09-15T14:40:49.950Z,7.20
2022-09-15T14:41:50.002Z,4.40
2022-09-15T14:42:49.929Z,6.60
2022-09-15T14:43:49.930Z,3.80
2022-09-15T14:45:56.083Z,6.50
2022-09-15T14:46:50.871Z,4.20
2022-09-15T14:47:49.851Z,4.60
2022-09-15T14:48:49.850Z,5.90
2022-09-15T14:49:49.840Z,4.30
2022-09-15T14:50:49.820Z,7.40
2022-09-15T14:51:49.800Z,5.80
2022-09-15T14:52:49.799Z,6.10
2022-09-15T14:53:49.782Z,6.50
2022-09-15T14:54:49.781Z,3.70
2022-09-15T14:55:49.748Z,3.10
2022-09-15T14:56:49.741Z,4.50
2022-09-15T14:57:49.723Z,5.30
2022-09-15T14:58:49.724Z,4.20
2022-09-15T14:59:49.712Z,4.80
2022-09-15T15:00:49.717Z,4.80
2022-09-15T15:01:49.699Z,6.00
2022-09-15T15:02:49.663Z,4.90
2022-09-15T15:03:49.641Z,4.60
2022-09-15T15:04:49.639Z,6.10
2022-09-15T15:05:54.670Z,4.50
2022-09-15T15:06:50.610Z,4.50
2022-09-15T15:07:49.590Z,4.20
2022-09-15T15:08:49.579Z,1.60
2022-09-15T15:09:49.580Z,4.60
2022-09-15T15:10:49.560Z,5.60
2022-09-15T15:11:49.530Z,3.60
2022-09-15T15:12:49.529Z,3.00
2022-09-15T15:13:49.511Z,8.50
2022-09-15T15:14:49.546Z,6.00
2022-09-15T15:15:49.487Z,6.00
2022-09-15T15:16:49.501Z,2.70
2022-09-15T15:17:49.504Z,4.80
2022-09-15T15:18:49.452Z,8.10
2022-09-15T15:19:49.444Z,2.50
2022-09-15T15:20:49.457Z,2.50
2022-09-15T15:21:49.400Z,6.50
2022-09-15T15:22:49.407Z,4.80
2022-09-15T15:23:49.528Z,3.20
2022-09-15T15:24:49.378Z,5.80
2022-09-15T15:25:49.350Z,5.00
2022-09-15T15:26:49.342Z,5.60
2022-09-15T15:27:49.320Z,2.20
2022-09-15T15:28:49.320Z,5.00
2022-09-15T15:29:49.310Z,4.30
2022-09-15T15:30:49.299Z,2.80
2022-09-15T15:31:49.331Z,4.60
2022-09-15T15:32:49.262Z,3.10
2022-09-15T15:33:49.241Z,4.20
2022-09-15T15:34:49.252Z,3.80
2022-09-15T15:35:49.221Z,4.50
2022-09-15T15:36:49.212Z,3.20
2022-09-15T15:37:49.193Z,4.70
2022-09-15T15:39:58.164Z,2.30
2022-09-15T15:40:58.052Z,5.10
2022-09-15T15:41:58.038Z,3.60
2022-09-15T15:43:00.146Z,3.60
2022-09-15T15:45:07.495Z,3.10
2022-09-15T15:50:56.959Z,6.40
2022-09-15T15:51:42.322Z,4.30
2022-09-15T15:52:42.312Z,6.20
2022-09-15T15:53:42.291Z,4.70
2022-09-15T15:54:42.312Z,2.60
2022-09-15T15:56:18.041Z,4.00
2022-09-15T16:11:37.548Z,3.50
2022-09-15T16:12:37.538Z,4.70
2022-09-15T16:13:37.522Z,4.10
2022-09-15T16:14:37.518Z,3.50
2022-09-15T16:15:37.498Z,7.30
2022-09-15T16:16:37.526Z,2.50
2022-09-15T16:17:37.468Z,3.80
2022-09-15T16:18:37.468Z,3.20
2022-09-15T16:19:37.457Z,2.40
2022-09-15T16:20:37.438Z,3.40
2022-09-15T16:21:37.418Z,2.70
2022-09-15T16:22:37.409Z,2.40
2022-09-15T16:23:37.388Z,3.30
2022-09-15T16:24:40.098Z,1.50
2022-09-15T16:47:00.828Z,2.40
2022-09-15T16:47:39.750Z,0.50
2022-09-15T16:48:39.726Z,3.60
2022-09-15T16:49:39.698Z,2.30
2022-09-15T16:50:40.176Z,2.30
2022-09-15T16:51:40.662Z,1.60
2022-09-15T16:52:39.641Z,2.10
2022-09-15T16:53:39.641Z,3.20
2022-09-15T16:54:39.621Z,2.10
2022-09-15T16:55:39.658Z,3.10
2022-09-15T16:56:39.591Z,2.20
2022-09-15T16:57:39.589Z,3.70
2022-09-15T16:58:39.571Z,2.90
2022-09-15T16:59:39.558Z,3.80
2022-09-15T17:00:39.586Z,3.00
2022-09-15T17:01:39.606Z,4.00
2022-09-15T17:04:24.004Z,1.80
2022-09-15T17:04:48.363Z,2.10
2022-09-15T17:05:48.805Z,3.10
2022-09-15T17:06:48.340Z,3.00
2022-09-15T17:07:48.325Z,4.20
2022-09-15T17:08:48.345Z,3.00
2022-09-15T17:09:48.342Z,2.80
2022-09-15T17:10:48.295Z,4.40
2022-09-15T17:11:48.293Z,5.50
2022-09-15T17:12:48.264Z,4.40
2022-09-15T17:13:48.248Z,3.10
2022-09-15T17:14:48.244Z,2.30
2022-09-15T17:15:48.340Z,5.90
2022-09-15T17:16:48.215Z,2.50
2022-09-15T17:17:48.195Z,4.50
2022-09-15T17:18:48.185Z,2.30
2022-09-15T17:19:48.174Z,4.70
2022-09-15T17:20:48.175Z,2.60
2022-09-15T17:21:48.156Z,3.90
2022-09-15T17:22:48.133Z,1.60
2022-09-15T17:23:48.127Z,2.90
2022-09-15T17:24:48.105Z,4.90
2022-09-15T17:25:48.125Z,3.10
2022-09-15T17:26:48.085Z,3.30
2022-09-15T17:27:48.074Z,3.40
2022-09-15T17:28:48.137Z,3.10
2022-09-15T17:29:48.044Z,3.70
2022-09-15T17:30:48.034Z,4.50
2022-09-15T17:31:48.014Z,1.60
2022-09-15T17:32:47.996Z,4.70
2022-09-15T17:33:47.995Z,2.40
2022-09-15T17:34:47.974Z,3.20
2022-09-15T17:35:47.976Z,2.40
2022-09-15T17:36:47.944Z,3.90
2022-09-15T17:37:47.934Z,5.00
2022-09-15T17:38:47.926Z,4.70
2022-09-15T17:39:47.962Z,2.60
2022-09-15T17:40:47.904Z,5.50
2022-09-15T17:41:47.883Z,1.60
2022-09-15T17:42:47.867Z,4.70
2022-09-15T17:43:47.854Z,3.50
2022-09-15T17:44:47.848Z,5.00
2022-09-15T17:45:47.844Z,3.60
2022-09-15T17:46:47.881Z,4.30
2022-09-15T17:47:47.804Z,2.90
2022-09-15T17:48:47.794Z,2.40
2022-09-15T17:49:47.827Z,5.60
2022-09-15T17:50:47.775Z,6.30
2022-09-15T17:51:47.754Z,2.40
2022-09-15T17:52:47.734Z,4.20
2022-09-15T17:53:47.804Z,3.00
2022-09-15T17:54:47.727Z,2.50
2022-09-15T17:55:47.722Z,3.10
2022-09-15T17:56:47.684Z,5.70
2022-09-15T17:57:47.674Z,3.20
2022-09-15T17:58:47.653Z,4.50
2022-09-15T17:59:47.667Z,3.20
2022-09-15T18:00:47.632Z,4.90
2022-09-15T18:01:47.673Z,1.70
2022-09-15T18:02:47.647Z,3.30
2022-09-15T18:03:47.594Z,2.20
2022-09-15T18:04:47.573Z,7.00
2022-09-15T18:05:47.574Z,3.50
2022-09-15T18:06:47.565Z,4.30
2022-09-15T18:07:47.543Z,5.10
2022-09-15T18:08:47.533Z,5.90
2022-09-15T18:09:47.515Z,6.70
2022-09-15T18:10:47.492Z,2.80
2022-09-15T18:11:47.547Z,4.90
2022-09-15T18:12:49.227Z,5.40
2022-09-15T18:13:47.463Z,4.00
2022-09-15T18:14:47.443Z,2.90
2022-09-15T18:15:47.474Z,3.50
2022-09-15T18:16:47.594Z,2.60
2022-09-15T18:17:47.432Z,4.20
2022-09-15T18:18:47.385Z,2.90
2022-09-15T18:19:47.391Z,3.50
2022-09-15T18:20:47.363Z,2.60
2022-09-15T18:21:47.551Z,2.80
2022-09-15T18:22:47.383Z,4.10
2022-09-15T18:23:47.342Z,3.90
2022-09-15T18:24:47.313Z,4.10
2022-09-15T18:25:47.303Z,1.40
2022-09-15T18:26:47.702Z,5.70
2022-09-15T18:27:47.272Z,4.00